createdAt,value
2018-02-22T00:01:07.706Z,19.23
2018-02-22T00:03:35.224Z,19.05
2018-02-22T00:06:02.727Z,18.17
2018-02-22T00:08:30.221Z,18.00
2018-02-22T00:10:57.735Z,18.58
2018-02-22T00:13:25.217Z,20.00
2018-02-22T00:15:52.731Z,19.27
2018-02-22T00:18:20.231Z,19.37
2018-02-22T00:20:47.723Z,20.30
2018-02-22T00:23:15.230Z,19.70
2018-02-22T00:25:42.707Z,18.60
2018-02-22T00:28:10.200Z,17.85
2018-02-22T00:30:37.680Z,18.98
2018-02-22T00:33:05.176Z,17.90
2018-02-22T00:35:32.692Z,20.27
2018-02-22T00:38:00.194Z,18.30
2018-02-22T00:40:27.687Z,18.35
2018-02-22T00:42:55.179Z,18.65
2018-02-22T00:45:22.663Z,18.65
2018-02-22T00:47:50.160Z,18.73
2018-02-22T00:50:17.647Z,19.10
2018-02-22T00:52:45.156Z,18.27
2018-02-22T00:55:12.644Z,19.77
2018-02-22T00:57:40.127Z,18.92
2018-02-22T01:00:07.614Z,18.95
2018-02-22T01:02:35.108Z,19.45
2018-02-22T01:05:02.599Z,19.35
2018-02-22T01:07:30.087Z,19.75
2018-02-22T01:09:57.587Z,18.55
2018-02-22T01:12:25.085Z,19.73
2018-02-22T01:14:52.559Z,19.60
2018-02-22T01:17:20.051Z,20.48
2018-02-22T01:19:47.544Z,20.40
2018-02-22T01:22:15.040Z,19.87
2018-02-22T01:24:42.529Z,19.52
2018-02-22T01:27:10.032Z,19.50
2018-02-22T01:29:37.506Z,18.65
2018-02-22T01:32:05.024Z,19.52
2018-02-22T01:34:32.508Z,19.42
2018-02-22T01:37:00.023Z,19.12
2018-02-22T01:39:27.506Z,19.15
2018-02-22T01:41:54.999Z,18.58
2018-02-22T01:44:22.491Z,18.00
2018-02-22T01:46:49.976Z,18.95
2018-02-22T01:49:17.472Z,19.70
2018-02-22T01:51:44.967Z,19.10
2018-02-22T01:54:12.494Z,19.08
2018-02-22T01:56:39.984Z,19.20
2018-02-22T01:59:07.463Z,20.30
2018-02-22T02:01:34.960Z,18.83
2018-02-22T02:04:02.458Z,19.30
2018-02-22T02:06:29.947Z,20.50
2018-02-22T02:08:57.435Z,19.87
2018-02-22T02:11:24.933Z,20.10
2018-02-22T02:13:52.431Z,21.23
2018-02-22T02:16:19.950Z,19.75
2018-02-22T02:18:47.431Z,20.35
2018-02-22T02:21:14.927Z,19.95
2018-02-22T02:23:42.427Z,20.23
2018-02-22T02:26:09.916Z,19.15
2018-02-22T02:28:37.404Z,19.80
2018-02-22T02:31:04.898Z,18.98
2018-02-22T02:33:32.492Z,19.75
2018-02-22T02:35:59.980Z,19.23
2018-02-22T02:38:27.473Z,19.42
2018-02-22T02:40:54.971Z,20.15
2018-02-22T02:43:22.473Z,18.80
2018-02-22T02:45:49.960Z,19.42
2018-02-22T02:48:17.452Z,20.05
2018-02-22T02:50:44.931Z,19.67
2018-02-22T02:53:12.436Z,19.33
2018-02-22T02:55:39.922Z,20.02
2018-02-22T02:58:07.419Z,18.92
2018-02-22T03:00:34.896Z,20.23
2018-02-22T03:03:02.393Z,19.50
2018-02-22T03:05:29.879Z,20.48
2018-02-22T03:07:57.373Z,19.10
2018-02-22T03:10:24.867Z,20.08
2018-02-22T03:12:52.379Z,20.12
2018-02-22T03:15:19.876Z,20.08
2018-02-22T03:17:47.362Z,19.37
2018-02-22T03:20:14.858Z,18.37
2018-02-22T03:22:42.354Z,17.90
2018-02-22T03:25:09.858Z,18.95
2018-02-22T03:27:37.339Z,18.02
2018-02-22T03:30:04.837Z,18.00
2018-02-22T03:32:32.353Z,19.33
2018-02-22T03:34:59.847Z,18.62
2018-02-22T03:37:27.324Z,18.17
2018-02-22T03:39:54.819Z,17.35
2018-02-22T03:42:22.326Z,17.65
2018-02-22T03:44:49.820Z,17.95
2018-02-22T03:47:17.306Z,16.87
2018-02-22T03:49:44.799Z,17.90
2018-02-22T03:52:12.297Z,16.92
2018-02-22T03:54:39.783Z,16.12
2018-02-22T03:57:07.270Z,16.83
2018-02-22T04:02:04.806Z,16.40
2018-02-22T04:04:32.287Z,16.08
2018-02-22T04:06:59.788Z,14.73
2018-02-22T04:09:27.283Z,16.45
2018-02-22T04:11:54.785Z,15.73
2018-02-22T04:14:22.290Z,14.60
2018-02-22T04:16:49.734Z,15.18
2018-02-22T04:19:17.271Z,15.57
2018-02-22T04:21:44.764Z,14.87
2018-02-22T04:24:12.258Z,14.60
2018-02-22T04:26:39.751Z,16.48
2018-02-22T04:29:07.267Z,18.17
2018-02-22T04:31:34.747Z,17.77
2018-02-22T04:34:02.234Z,17.95
2018-02-22T04:36:29.744Z,17.42
2018-02-22T04:38:57.231Z,17.85
2018-02-22T04:41:24.758Z,16.83
2018-02-22T04:43:52.280Z,17.62
2018-02-22T04:46:19.743Z,17.10
2018-02-22T04:48:47.239Z,17.67
2018-02-22T04:51:14.746Z,17.80
2018-02-22T04:53:42.227Z,18.35
2018-02-22T04:56:09.739Z,18.15
2018-02-22T04:58:37.259Z,18.00
2018-02-22T05:01:04.718Z,17.70
2018-02-22T05:03:32.259Z,16.85
2018-02-22T05:05:59.751Z,16.83
2018-02-22T05:08:27.267Z,15.50
2018-02-22T05:10:54.763Z,15.85
2018-02-22T05:13:22.266Z,15.48
2018-02-22T05:15:49.747Z,14.45
2018-02-22T05:18:17.236Z,14.87
2018-02-22T05:20:44.743Z,15.13
2018-02-22T05:23:12.220Z,14.80
2018-02-22T05:25:39.720Z,12.55
2018-02-22T05:28:07.227Z,11.15
2018-02-22T05:30:34.716Z,10.50
2018-02-22T05:33:02.211Z,10.38
2018-02-22T05:35:29.708Z,10.25
2018-02-22T05:37:57.194Z,9.48
2018-02-22T05:40:24.689Z,10.00
2018-02-22T05:42:52.188Z,9.30
2018-02-22T05:45:19.667Z,9.23
2018-02-22T05:47:47.180Z,8.60
2018-02-22T05:50:14.663Z,8.68
2018-02-22T05:52:42.143Z,9.02
2018-02-22T05:55:09.639Z,9.10
2018-02-22T05:57:37.118Z,9.07
2018-02-22T06:00:04.620Z,9.68
2018-02-22T06:02:32.118Z,9.35
2018-02-22T06:04:59.607Z,9.50
2018-02-22T06:07:27.082Z,8.38
2018-02-22T06:09:54.545Z,9.55
2018-02-22T06:12:22.061Z,9.10
2018-02-22T06:14:49.565Z,9.55
2018-02-22T06:17:17.056Z,9.20
2018-02-22T06:19:44.547Z,8.52
2018-02-22T06:22:12.038Z,9.10
2018-02-22T06:24:39.551Z,8.70
2018-02-22T06:27:07.059Z,9.73
2018-02-22T06:29:34.508Z,9.23
2018-02-22T06:32:02.046Z,9.77
2018-02-22T06:34:29.548Z,9.07
2018-02-22T06:36:57.023Z,9.82
2018-02-22T06:39:24.511Z,9.68
2018-02-22T06:41:52.003Z,9.07
2018-02-22T06:44:19.514Z,9.60
2018-02-22T06:46:47.039Z,9.18
2018-02-22T06:49:14.509Z,9.88
2018-02-22T06:51:42.003Z,9.55
2018-02-22T06:54:09.506Z,9.05
2018-02-22T06:56:36.999Z,9.20
2018-02-22T06:59:04.476Z,8.40
2018-02-22T07:01:31.966Z,9.07
2018-02-22T07:03:59.481Z,9.20
2018-02-22T07:06:26.961Z,8.75
2018-02-22T07:08:54.441Z,8.25
2018-02-22T07:11:21.946Z,9.25
2018-02-22T07:13:49.452Z,10.27
2018-02-22T07:16:16.983Z,10.15
2018-02-22T07:18:44.489Z,11.38
2018-02-22T07:21:12.001Z,10.77
2018-02-22T07:23:39.503Z,16.55
2018-02-22T07:26:07.011Z,14.27
2018-02-22T07:28:34.524Z,22.87
2018-02-22T07:31:02.033Z,26.35
2018-02-22T07:33:29.575Z,28.45
2018-02-22T07:35:57.086Z,27.77
2018-02-22T07:38:24.577Z,21.10
2018-02-22T07:40:52.066Z,16.90
2018-02-22T07:43:19.556Z,13.77
2018-02-22T07:45:47.051Z,11.07
2018-02-22T07:48:14.542Z,11.95
2018-02-22T07:50:42.035Z,9.77
2018-02-22T07:53:09.523Z,8.65
2018-02-22T07:55:37.021Z,8.60
2018-02-22T07:58:04.536Z,8.73
2018-02-22T08:00:32.031Z,9.48
2018-02-22T08:02:59.521Z,9.80
2018-02-22T08:05:27.032Z,9.68
2018-02-22T08:07:54.537Z,8.95
2018-02-22T08:10:22.029Z,9.15
2018-02-22T08:12:49.547Z,8.43
2018-02-22T08:15:17.046Z,8.77
2018-02-22T08:17:44.600Z,9.32
2018-02-22T08:20:12.090Z,9.65
2018-02-22T08:22:39.587Z,9.25
2018-02-22T08:25:07.080Z,10.10
2018-02-22T08:27:34.563Z,9.52
2018-02-22T08:30:02.051Z,9.85
2018-02-22T08:32:29.534Z,10.20
2018-02-22T08:34:57.043Z,10.45
2018-02-22T08:37:24.527Z,10.60
2018-02-22T08:39:52.038Z,11.30
2018-02-22T08:42:19.552Z,11.10
2018-02-22T08:44:47.062Z,11.88
2018-02-22T08:47:14.580Z,12.00
2018-02-22T08:49:42.059Z,11.55
2018-02-22T08:52:09.555Z,12.00
2018-02-22T08:54:37.046Z,12.25
2018-02-22T08:57:04.536Z,12.82
2018-02-22T08:59:34.096Z,11.98
2018-02-22T09:02:01.585Z,13.00
2018-02-22T09:04:29.082Z,11.68
2018-02-22T09:06:56.571Z,11.32
2018-02-22T09:09:24.059Z,10.80
2018-02-22T09:11:51.555Z,11.43
2018-02-22T09:14:19.043Z,10.88
2018-02-22T09:16:46.529Z,12.52
2018-02-22T09:19:14.038Z,11.68
2018-02-22T09:21:41.534Z,11.45
2018-02-22T09:24:09.075Z,11.32
2018-02-22T09:26:36.643Z,11.18
2018-02-22T09:29:04.229Z,11.45
2018-02-22T09:31:31.732Z,11.43
2018-02-22T09:33:59.225Z,11.68
2018-02-22T09:36:26.721Z,11.98
2018-02-22T09:38:54.239Z,10.77
2018-02-22T09:41:21.735Z,11.32
2018-02-22T09:43:49.318Z,11.15
2018-02-22T09:46:16.814Z,11.07
2018-02-22T09:48:44.340Z,11.32
2018-02-22T09:51:11.867Z,11.77
2018-02-22T09:53:39.360Z,12.13
2018-02-22T09:56:06.851Z,11.80
2018-02-22T09:58:34.359Z,11.25
2018-02-22T10:01:01.860Z,11.95
2018-02-22T10:03:29.360Z,11.63
2018-02-22T10:05:56.867Z,11.43
2018-02-22T10:08:24.388Z,11.63
2018-02-22T10:10:51.910Z,11.70
2018-02-22T10:13:19.546Z,11.82
2018-02-22T10:15:47.120Z,12.10
2018-02-22T10:18:14.685Z,12.88
2018-02-22T10:20:42.193Z,13.25
2018-02-22T10:23:09.695Z,15.00
2018-02-22T10:25:37.182Z,14.65
2018-02-22T10:28:04.813Z,17.35
2018-02-22T10:30:32.328Z,15.77
2018-02-22T10:32:59.861Z,17.33
2018-02-22T10:35:27.394Z,16.20
2018-02-22T10:37:54.886Z,17.80
2018-02-22T10:40:22.428Z,18.48
2018-02-22T10:42:49.983Z,18.15
2018-02-22T10:45:17.463Z,18.75
2018-02-22T10:47:44.958Z,19.20
2018-02-22T10:50:12.457Z,17.95
2018-02-22T10:52:39.969Z,17.17
2018-02-22T10:55:07.472Z,16.70
2018-02-22T10:57:34.977Z,17.80
2018-02-22T11:00:02.493Z,17.40
2018-02-22T11:02:35.611Z,17.75
2018-02-22T11:05:03.111Z,20.15
2018-02-22T11:07:30.629Z,19.50
2018-02-22T11:09:58.150Z,19.65
2018-02-22T11:12:25.723Z,19.50
2018-02-22T11:14:53.235Z,20.88
2018-02-22T11:17:20.756Z,22.35
2018-02-22T11:19:48.277Z,22.27
2018-02-22T11:22:15.811Z,22.05
2018-02-22T11:24:43.299Z,22.80
2018-02-22T11:27:10.877Z,22.33
2018-02-22T11:29:38.379Z,22.17
2018-02-22T11:32:05.903Z,21.02
2018-02-22T11:34:33.400Z,21.23
2018-02-22T11:37:00.889Z,20.05
2018-02-22T11:39:28.433Z,19.90
2018-02-22T11:41:55.932Z,19.00
2018-02-22T11:44:23.452Z,18.27
2018-02-22T11:46:50.935Z,19.90
2018-02-22T11:49:18.504Z,18.83
2018-02-22T11:51:46.006Z,18.70
2018-02-22T11:54:13.516Z,19.90
2018-02-22T11:56:41.008Z,20.15
2018-02-22T11:59:08.558Z,21.65
2018-02-22T12:01:36.064Z,20.65
2018-02-22T12:04:03.594Z,20.67
2018-02-22T12:06:31.104Z,21.80
2018-02-22T12:08:58.740Z,21.10
2018-02-22T12:11:26.280Z,20.95
2018-02-22T12:13:53.828Z,20.83
2018-02-22T12:16:21.348Z,19.95
2018-02-22T12:18:48.820Z,19.70
2018-02-22T12:21:16.335Z,20.42
2018-02-22T12:23:43.830Z,21.67
2018-02-22T12:26:11.328Z,17.35
2018-02-22T12:28:39.394Z,18.67
2018-02-22T12:31:06.904Z,19.62
2018-02-22T12:33:34.419Z,18.65
2018-02-22T12:36:01.926Z,19.05
2018-02-22T12:38:29.418Z,17.30
2018-02-22T12:40:56.926Z,16.80
2018-02-22T12:43:24.426Z,16.00
2018-02-22T12:45:51.930Z,13.40
2018-02-22T12:48:19.428Z,13.07
2018-02-22T12:50:46.971Z,12.30
2018-02-22T12:53:14.479Z,12.65
2018-02-22T12:55:42.029Z,12.60
2018-02-22T12:58:09.528Z,12.45
2018-02-22T13:00:37.019Z,12.10
2018-02-22T13:03:04.549Z,12.73
2018-02-22T13:05:32.064Z,12.60
2018-02-22T13:07:59.565Z,11.50
2018-02-22T13:10:27.051Z,11.73
2018-02-22T13:12:54.573Z,11.20
2018-02-22T13:15:22.093Z,10.32
2018-02-22T13:17:49.620Z,11.73
2018-02-22T13:20:17.124Z,12.55
2018-02-22T13:22:44.620Z,11.63
2018-02-22T13:25:12.137Z,11.15
2018-02-22T13:27:39.631Z,10.90
2018-02-22T13:30:07.139Z,12.10
2018-02-22T13:32:46.265Z,12.37
2018-02-22T13:35:13.746Z,11.82
2018-02-22T13:40:51.446Z,13.75
2018-02-22T13:43:18.955Z,12.37
2018-02-22T13:45:46.476Z,11.82
2018-02-22T13:48:13.971Z,11.85
2018-02-22T13:50:53.236Z,12.25
2018-02-22T13:53:20.732Z,13.73
2018-02-22T13:55:48.239Z,15.32
2018-02-22T13:58:15.734Z,15.05
2018-02-22T14:00:54.924Z,14.77
2018-02-22T14:03:22.436Z,15.00
2018-02-22T14:05:49.925Z,14.98
2018-02-22T14:08:29.057Z,16.15
2018-02-22T14:11:03.447Z,16.55
2018-02-22T14:13:30.947Z,17.87
2018-02-22T14:15:58.532Z,16.42
2018-02-22T14:18:26.073Z,17.30
2018-02-22T14:20:53.580Z,15.70
2018-02-22T14:23:21.082Z,13.77
2018-02-22T14:25:48.595Z,12.37
2018-02-22T14:28:16.126Z,12.70
2018-02-22T14:30:43.628Z,12.85
2018-02-22T14:33:11.132Z,12.88
2018-02-22T14:35:38.638Z,14.70
2018-02-22T14:38:06.148Z,15.98
2018-02-22T14:40:33.681Z,14.68
2018-02-22T14:43:01.190Z,13.45
2018-02-22T14:45:28.723Z,14.40
2018-02-22T14:47:56.184Z,14.20
2018-02-22T14:50:23.676Z,13.20
2018-02-22T14:52:51.343Z,12.57
2018-02-22T14:55:18.844Z,14.05
2018-02-22T14:57:46.355Z,15.95
2018-02-22T15:00:13.877Z,16.45
2018-02-22T15:02:41.378Z,16.27
2018-02-22T15:05:08.871Z,15.73
2018-02-22T15:07:36.389Z,15.27
2018-02-22T15:10:03.896Z,15.20
2018-02-22T15:12:31.403Z,14.73
2018-02-22T15:14:58.896Z,14.10
2018-02-22T15:17:26.446Z,15.05
2018-02-22T15:19:54.067Z,15.23
2018-02-22T15:22:21.575Z,15.23
2018-02-22T15:24:49.915Z,14.57
2018-02-22T15:27:18.207Z,15.48
2018-02-22T15:29:45.702Z,15.40
2018-02-22T15:32:13.219Z,15.00
2018-02-22T15:34:40.715Z,15.02
2018-02-22T15:37:08.226Z,15.15
2018-02-22T15:39:35.734Z,15.45
2018-02-22T15:42:03.227Z,16.15
2018-02-22T15:44:30.727Z,15.63
2018-02-22T15:46:58.226Z,15.10
2018-02-22T15:49:25.724Z,14.13
2018-02-22T15:51:53.223Z,14.80
2018-02-22T15:54:20.725Z,14.45
2018-02-22T15:56:48.227Z,15.93
2018-02-22T15:59:15.808Z,15.57
2018-02-22T16:01:43.299Z,19.73
2018-02-22T16:04:10.800Z,19.00
2018-02-22T16:06:38.298Z,18.45
2018-02-22T16:09:05.811Z,19.00
2018-02-22T16:11:33.309Z,19.92
2018-02-22T16:14:00.835Z,18.23
2018-02-22T16:16:28.373Z,18.67
2018-02-22T16:18:55.871Z,18.12
2018-02-22T16:21:23.383Z,17.37
2018-02-22T16:23:50.971Z,19.70
2018-02-22T16:26:18.569Z,18.40
2018-02-22T16:28:46.072Z,17.08
2018-02-22T16:31:13.572Z,17.50
2018-02-22T16:33:41.075Z,18.10
2018-02-22T16:36:08.596Z,16.55
2018-02-22T16:38:36.096Z,18.75
2018-02-22T16:41:03.620Z,17.73
2018-02-22T16:43:32.404Z,17.37
2018-02-22T16:45:59.899Z,16.83
2018-02-22T16:48:27.477Z,16.95
2018-02-22T16:50:54.976Z,16.50
2018-02-22T16:53:22.495Z,16.62
2018-02-22T16:55:49.996Z,16.92
2018-02-22T16:58:17.507Z,15.48
2018-02-22T17:00:45.083Z,15.63
2018-02-22T17:03:12.555Z,15.82
2018-02-22T17:05:40.071Z,15.95
2018-02-22T17:08:07.579Z,15.85
2018-02-22T17:10:35.084Z,15.18
2018-02-22T17:13:02.591Z,13.82
2018-02-22T17:15:30.148Z,14.98
2018-02-22T17:17:57.724Z,16.40
2018-02-22T17:20:25.227Z,17.37
2018-02-22T17:22:52.742Z,15.45
2018-02-22T17:25:19.702Z,16.33
2018-02-22T17:27:52.575Z,16.65
2018-02-22T17:30:25.581Z,19.90
2018-02-22T17:32:53.106Z,21.00
2018-02-22T17:35:23.398Z,20.02
2018-02-22T17:37:56.943Z,19.80
2018-02-22T17:40:28.824Z,19.17
2018-02-22T17:42:56.348Z,20.27
2018-02-22T17:45:23.863Z,17.83
2018-02-22T17:47:51.404Z,20.35
2018-02-22T17:50:18.911Z,20.30
2018-02-22T17:52:46.409Z,20.50
2018-02-22T17:55:13.917Z,21.65
2018-02-22T17:57:41.431Z,19.77
2018-02-22T18:00:08.936Z,22.05
2018-02-22T18:02:36.448Z,22.70
2018-02-22T18:05:03.980Z,22.45
2018-02-22T18:07:31.559Z,22.70
2018-02-22T18:09:59.158Z,22.45
2018-02-22T18:12:26.649Z,22.33
2018-02-22T18:14:54.155Z,24.87
2018-02-22T18:17:21.667Z,23.65
2018-02-22T18:19:49.179Z,25.33
2018-02-22T18:22:16.681Z,25.92
2018-02-22T18:24:44.207Z,24.67
2018-02-22T18:27:11.700Z,24.73
2018-02-22T18:29:39.203Z,25.60
2018-02-22T18:32:06.690Z,27.40
2018-02-22T18:34:34.181Z,26.40
2018-02-22T18:37:01.681Z,34.13
2018-02-22T18:39:29.179Z,34.25
2018-02-22T18:41:59.243Z,33.35
2018-02-22T18:44:32.139Z,30.92
2018-02-22T18:46:59.659Z,29.30
2018-02-22T18:49:27.162Z,28.27
2018-02-22T18:51:54.660Z,29.77
2018-02-22T18:54:22.162Z,28.60
2018-02-22T18:56:49.674Z,28.62
2018-02-22T18:59:17.158Z,28.80
2018-02-22T19:01:44.648Z,25.90
2018-02-22T19:04:12.127Z,27.20
2018-02-22T19:06:39.647Z,28.23
2018-02-22T19:09:07.158Z,30.60
2018-02-22T19:11:34.643Z,32.78
2018-02-22T19:14:02.308Z,32.65
2018-02-22T19:16:29.808Z,30.08
2018-02-22T19:18:57.303Z,28.08
2018-02-22T19:21:24.836Z,29.33
2018-02-22T19:23:52.341Z,30.37
2018-02-22T19:26:19.903Z,27.70
2018-02-22T19:28:47.428Z,28.75
2018-02-22T19:31:14.931Z,29.85
2018-02-22T19:33:42.440Z,28.17
2018-02-22T19:36:09.935Z,29.17
2018-02-22T19:38:37.427Z,29.90
2018-02-22T19:41:05.727Z,29.83
2018-02-22T19:43:33.230Z,29.77
2018-02-22T19:46:00.726Z,29.12
2018-02-22T19:48:28.219Z,30.37
2018-02-22T19:50:55.732Z,30.12
2018-02-22T19:53:23.228Z,30.12
2018-02-22T19:55:50.707Z,29.80
2018-02-22T19:58:18.227Z,29.92
2018-02-22T20:00:45.718Z,32.58
2018-02-22T20:03:13.247Z,33.78
2018-02-22T20:05:40.735Z,31.20
2018-02-22T20:08:08.241Z,34.83
2018-02-22T20:10:35.748Z,34.50
2018-02-22T20:13:03.246Z,34.03
2018-02-22T20:15:30.782Z,31.52
2018-02-22T20:17:58.306Z,32.47
2018-02-22T20:20:25.804Z,31.45
2018-02-22T20:22:53.335Z,33.60
2018-02-22T20:25:20.935Z,32.85
2018-02-22T20:27:48.458Z,36.08
2018-02-22T20:30:15.979Z,35.53
2018-02-22T20:32:43.487Z,37.55
2018-02-22T20:35:10.984Z,45.22
2018-02-22T20:37:38.530Z,48.97
2018-02-22T20:40:06.030Z,46.95
2018-02-22T20:42:33.523Z,49.70
2018-02-22T20:45:01.064Z,50.03
2018-02-22T20:47:28.587Z,50.30
2018-02-22T20:49:56.127Z,47.05
2018-02-22T20:52:30.036Z,48.05
2018-02-22T20:55:10.308Z,47.42
2018-02-22T20:57:37.894Z,47.22
2018-02-22T21:00:05.372Z,49.10
2018-02-22T21:02:33.017Z,47.10
2018-02-22T21:05:00.525Z,46.78
2018-02-22T21:07:28.023Z,43.08
2018-02-22T21:09:55.592Z,38.33
2018-02-22T21:12:23.096Z,38.05
2018-02-22T21:14:50.578Z,41.70
2018-02-22T21:17:18.069Z,44.15
2018-02-22T21:19:45.563Z,44.65
2018-02-22T21:22:13.083Z,44.00
2018-02-22T21:24:40.579Z,42.47
2018-02-22T21:27:08.067Z,41.00
2018-02-22T21:29:35.557Z,37.85
2018-02-22T21:32:03.047Z,38.03
2018-02-22T21:34:30.538Z,37.63
2018-02-22T21:36:58.019Z,38.35
2018-02-22T21:39:25.580Z,36.72
2018-02-22T21:41:53.059Z,36.03
2018-02-22T21:44:20.572Z,38.15
2018-02-22T21:46:48.053Z,36.72
2018-02-22T21:49:15.531Z,39.15
2018-02-22T21:51:43.016Z,39.70
2018-02-22T21:54:10.531Z,37.15
2018-02-22T21:56:38.036Z,38.65
2018-02-22T21:59:05.527Z,36.65
2018-02-22T22:01:33.031Z,38.45
2018-02-22T22:04:00.546Z,37.22
2018-02-22T22:06:28.043Z,38.75
2018-02-22T22:08:55.523Z,38.15
2018-02-22T22:11:23.022Z,37.58
2018-02-22T22:13:50.503Z,39.00
2018-02-22T22:16:18.017Z,39.17
2018-02-22T22:18:45.510Z,36.47
2018-02-22T22:21:12.987Z,36.78
2018-02-22T22:23:40.509Z,34.95
2018-02-22T22:26:08.027Z,33.63
2018-02-22T22:28:35.518Z,36.38
2018-02-22T22:31:03.011Z,34.65
2018-02-22T22:33:30.497Z,34.75
2018-02-22T22:35:57.990Z,34.45
2018-02-22T22:38:25.536Z,34.97
2018-02-22T22:40:53.071Z,32.63
2018-02-22T22:43:20.567Z,36.13
2018-02-22T22:45:48.058Z,35.47
2018-02-22T22:48:15.555Z,35.33
2018-02-22T22:50:43.051Z,37.25
2018-02-22T22:53:10.556Z,36.22
2018-02-22T22:55:38.043Z,35.97
2018-02-22T22:58:05.548Z,35.97
2018-02-22T23:00:33.039Z,36.88
2018-02-22T23:03:00.543Z,36.03
2018-02-22T23:05:28.040Z,35.38
2018-02-22T23:07:55.548Z,35.20
2018-02-22T23:10:23.051Z,36.60
2018-02-22T23:12:50.589Z,34.85
2018-02-22T23:15:18.079Z,36.05
2018-02-22T23:17:45.572Z,36.22
2018-02-22T23:20:13.068Z,34.00
2018-02-22T23:22:40.563Z,33.90
2018-02-22T23:25:08.075Z,34.22
2018-02-22T23:27:35.557Z,32.00
2018-02-22T23:30:03.055Z,32.13
2018-02-22T23:32:30.556Z,31.73
2018-02-22T23:34:58.055Z,30.92
2018-02-22T23:37:25.591Z,31.08
2018-02-22T23:39:53.111Z,30.02
2018-02-22T23:42:26.079Z,29.77
2018-02-22T23:44:53.555Z,29.63
2018-02-22T23:47:21.059Z,29.33
2018-02-22T23:49:48.571Z,28.92
2018-02-22T23:52:16.069Z,30.40
2018-02-22T23:54:43.587Z,30.42
2018-02-22T23:57:11.064Z,30.35
2018-02-22T23:59:38.560Z,31.85
